createdAt,value
2022-12-09T00:00:08.170Z,20.70
2022-12-09T00:02:35.559Z,20.88
2022-12-09T00:05:02.691Z,20.73
2022-12-09T00:07:29.576Z,21.13
2022-12-09T00:09:56.569Z,19.40
2022-12-09T00:12:23.394Z,19.67
2022-12-09T00:14:50.430Z,18.92
2022-12-09T00:17:17.468Z,19.10
2022-12-09T00:19:44.348Z,18.13
2022-12-09T00:22:11.096Z,21.08
2022-12-09T00:24:38.221Z,20.30
2022-12-09T00:27:05.019Z,19.98
2022-12-09T00:29:31.808Z,19.35
2022-12-09T00:31:58.564Z,19.13
2022-12-09T00:34:25.428Z,20.10
2022-12-09T00:36:52.448Z,18.85
2022-12-09T00:39:19.351Z,18.58
2022-12-09T00:41:46.154Z,19.38
2022-12-09T00:44:13.261Z,19.35
2022-12-09T00:46:40.048Z,19.40
2022-12-09T00:49:07.002Z,17.90
2022-12-09T00:51:34.017Z,18.88
2022-12-09T00:54:00.929Z,17.90
2022-12-09T00:56:30.014Z,17.75
2022-12-09T00:58:58.630Z,18.85
2022-12-09T01:01:26.562Z,18.92
2022-12-09T01:03:53.663Z,19.38
2022-12-09T01:06:23.973Z,19.92
2022-12-09T01:08:51.630Z,18.38
2022-12-09T01:11:29.418Z,19.17
2022-12-09T01:14:01.484Z,17.77
2022-12-09T01:16:32.374Z,18.98
2022-12-09T01:19:05.869Z,18.17
2022-12-09T01:21:34.235Z,17.13
2022-12-09T01:24:02.016Z,18.33
2022-12-09T01:26:28.789Z,17.50
2022-12-09T01:28:57.050Z,18.98
2022-12-09T01:31:24.903Z,17.17
2022-12-09T01:33:52.544Z,16.65
2022-12-09T01:36:23.871Z,16.55
2022-12-09T01:38:51.130Z,16.27
2022-12-09T01:41:20.597Z,17.83
2022-12-09T01:44:20.737Z,16.60
2022-12-09T01:46:47.993Z,16.45
2022-12-09T01:49:29.792Z,17.42
2022-12-09T01:52:09.821Z,16.85
2022-12-09T01:54:38.408Z,16.98
2022-12-09T01:57:05.949Z,17.02
2022-12-09T01:59:32.837Z,17.25
2022-12-09T02:02:02.468Z,16.63
2022-12-09T02:04:32.915Z,16.42
2022-12-09T02:07:01.590Z,16.00
2022-12-09T02:09:28.969Z,15.40
2022-12-09T02:12:17.449Z,16.77
2022-12-09T02:15:05.987Z,16.48
2022-12-09T02:17:49.375Z,17.92
2022-12-09T02:20:38.846Z,16.00
2022-12-09T02:23:24.341Z,16.67
2022-12-09T02:26:27.757Z,16.50
2022-12-09T02:29:30.068Z,14.52
2022-12-09T02:32:23.091Z,14.02
2022-12-09T02:35:06.235Z,16.27
2022-12-09T02:37:57.715Z,15.13
2022-12-09T02:40:36.252Z,14.80
2022-12-09T02:43:06.597Z,15.07
2022-12-09T02:45:35.911Z,15.77
2022-12-09T02:48:04.531Z,15.13
2022-12-09T02:50:36.727Z,15.18
2022-12-09T02:53:09.407Z,14.73
2022-12-09T02:55:37.502Z,14.90
2022-12-09T02:58:04.552Z,15.32
2022-12-09T03:00:31.637Z,14.57
2022-12-09T03:03:03.121Z,13.93
2022-12-09T03:05:34.301Z,14.25
2022-12-09T03:08:15.751Z,14.90
2022-12-09T03:11:08.917Z,15.27
2022-12-09T03:13:46.868Z,14.18
2022-12-09T03:16:34.119Z,14.45
2022-12-09T03:19:20.689Z,14.57
2022-12-09T03:21:51.734Z,13.88
2022-12-09T03:24:24.877Z,14.23
2022-12-09T03:26:53.847Z,11.30
2022-12-09T03:29:26.871Z,14.85
2022-12-09T03:31:57.092Z,14.20
2022-12-09T03:34:30.368Z,15.88
2022-12-09T03:36:58.792Z,14.82
2022-12-09T03:39:31.473Z,14.38
2022-12-09T03:42:03.689Z,14.93
2022-12-09T03:44:52.354Z,14.80
2022-12-09T03:47:19.630Z,13.70
2022-12-09T03:49:46.620Z,16.25
2022-12-09T03:52:27.642Z,15.93
2022-12-09T03:55:01.811Z,15.05
2022-12-09T03:57:29.801Z,14.25
2022-12-09T04:00:00.685Z,14.63
2022-12-09T04:02:28.348Z,14.23
2022-12-09T04:04:55.444Z,14.52
2022-12-09T04:07:22.314Z,14.50
2022-12-09T04:09:49.266Z,15.30
2022-12-09T04:12:16.333Z,15.13
2022-12-09T04:14:43.267Z,15.27
2022-12-09T04:17:11.998Z,14.48
2022-12-09T04:19:38.890Z,14.05
2022-12-09T04:22:06.098Z,15.65
2022-12-09T04:24:33.157Z,14.68
2022-12-09T04:27:00.120Z,15.02
2022-12-09T04:29:27.079Z,16.77
2022-12-09T04:31:53.959Z,14.63
2022-12-09T04:34:20.842Z,14.68
2022-12-09T04:36:49.353Z,14.85
2022-12-09T04:39:16.439Z,17.27
2022-12-09T04:41:43.658Z,17.10
2022-12-09T04:44:10.756Z,15.93
2022-12-09T04:46:37.646Z,18.05
2022-12-09T04:49:04.803Z,18.35
2022-12-09T04:51:39.063Z,15.98
2022-12-09T04:54:07.508Z,16.65
2022-12-09T04:56:34.283Z,19.30
2022-12-09T04:59:01.173Z,19.15
2022-12-09T05:01:31.166Z,19.65
2022-12-09T05:03:59.532Z,19.55
2022-12-09T05:06:27.000Z,20.05
2022-12-09T05:08:55.073Z,18.95
2022-12-09T05:11:24.099Z,19.67
2022-12-09T05:13:53.333Z,20.08
2022-12-09T05:16:20.706Z,20.27
2022-12-09T05:18:49.105Z,22.08
2022-12-09T05:21:19.462Z,20.80
2022-12-09T05:23:46.713Z,19.75
2022-12-09T05:26:19.333Z,20.10
2022-12-09T05:28:46.904Z,19.55
2022-12-09T05:31:21.034Z,19.98
2022-12-09T05:33:50.428Z,19.42
2022-12-09T05:36:24.354Z,19.33
2022-12-09T05:38:52.009Z,20.38
2022-12-09T05:41:20.437Z,20.48
2022-12-09T05:43:47.783Z,19.33
2022-12-09T05:46:15.783Z,19.48
2022-12-09T05:48:43.326Z,20.65
2022-12-09T05:51:31.252Z,18.30
2022-12-09T05:54:04.612Z,19.40
2022-12-09T05:56:33.339Z,18.60
2022-12-09T05:59:00.363Z,18.83
2022-12-09T06:01:27.846Z,20.95
2022-12-09T06:03:55.704Z,21.13
2022-12-09T06:06:26.827Z,19.77
2022-12-09T06:09:02.660Z,20.08
2022-12-09T06:11:30.197Z,19.40
2022-12-09T06:13:57.675Z,19.90
2022-12-09T06:16:25.187Z,19.58
2022-12-09T06:18:52.628Z,19.65
2022-12-09T06:21:21.200Z,19.65
2022-12-09T06:23:50.174Z,19.63
2022-12-09T06:26:21.680Z,21.17
2022-12-09T06:28:48.974Z,18.80
2022-12-09T06:31:16.487Z,19.35
2022-12-09T06:34:00.246Z,20.25
2022-12-09T06:39:05.871Z,18.70
2022-12-09T06:41:43.282Z,17.65
2022-12-09T06:44:14.775Z,19.50
2022-12-09T06:46:47.127Z,20.92
2022-12-09T06:49:14.411Z,19.33
2022-12-09T06:51:41.627Z,19.48
2022-12-09T06:54:09.738Z,18.65
2022-12-09T06:56:36.742Z,19.33
2022-12-09T06:59:07.843Z,20.45
2022-12-09T07:01:35.866Z,19.70
2022-12-09T07:04:05.301Z,17.95
2022-12-09T07:06:43.392Z,20.30
2022-12-09T07:09:20.893Z,19.25
2022-12-09T07:11:48.926Z,19.02
2022-12-09T07:14:18.345Z,19.35
2022-12-09T07:16:45.577Z,19.73
2022-12-09T07:19:22.392Z,20.95
2022-12-09T07:21:50.896Z,20.30
2022-12-09T07:24:19.750Z,19.92
2022-12-09T07:26:47.737Z,19.05
2022-12-09T07:29:14.755Z,21.70
2022-12-09T07:31:42.348Z,20.83
2022-12-09T07:34:11.806Z,21.70
2022-12-09T07:36:38.837Z,19.48
2022-12-09T07:39:14.024Z,20.75
2022-12-09T07:41:42.092Z,18.60
2022-12-09T07:44:11.145Z,19.80
2022-12-09T07:46:39.662Z,20.58
2022-12-09T07:49:06.669Z,19.75
2022-12-09T07:51:34.762Z,21.65
2022-12-09T07:54:01.824Z,21.27
2022-12-09T07:56:29.371Z,22.27
2022-12-09T07:58:57.412Z,21.50
2022-12-09T08:01:30.208Z,22.23
2022-12-09T08:03:57.979Z,23.75
2022-12-09T08:06:28.444Z,22.67
2022-12-09T08:08:59.889Z,24.70
2022-12-09T08:11:30.906Z,22.70
2022-12-09T08:14:04.367Z,21.35
2022-12-09T08:16:34.669Z,22.05
2022-12-09T08:19:02.182Z,22.08
2022-12-09T08:21:32.778Z,23.55
2022-12-09T08:24:03.304Z,23.35
2022-12-09T08:26:32.348Z,22.70
2022-12-09T08:28:59.924Z,22.20
2022-12-09T08:31:28.521Z,22.15
2022-12-09T08:33:56.008Z,21.67
2022-12-09T08:36:26.835Z,22.77
2022-12-09T08:38:55.357Z,20.40
2022-12-09T08:41:35.855Z,22.27
2022-12-09T08:44:13.820Z,21.23
2022-12-09T08:46:44.709Z,20.70
2022-12-09T08:49:13.555Z,19.75
2022-12-09T08:51:40.716Z,22.48
2022-12-09T08:54:07.779Z,23.13
2022-12-09T08:56:35.396Z,20.83
2022-12-09T08:59:03.035Z,22.58
2022-12-09T09:01:35.836Z,22.25
2022-12-09T09:04:10.750Z,22.80
2022-12-09T09:06:40.609Z,20.38
2022-12-09T09:09:09.468Z,21.15
2022-12-09T09:11:37.749Z,21.02
2022-12-09T09:14:09.358Z,19.67
2022-12-09T09:16:40.088Z,20.63
2022-12-09T09:19:08.118Z,20.65
2022-12-09T09:21:35.804Z,21.85
2022-12-09T09:24:03.187Z,21.17
2022-12-09T09:26:30.254Z,21.00
2022-12-09T09:28:57.418Z,21.80
2022-12-09T09:31:25.994Z,20.45
2022-12-09T09:33:53.959Z,23.33
2022-12-09T09:36:24.882Z,21.88
2022-12-09T09:38:55.050Z,21.90
2022-12-09T09:41:37.171Z,20.77
2022-12-09T09:44:16.739Z,21.75
2022-12-09T09:46:47.991Z,22.38
2022-12-09T09:49:36.451Z,22.42
2022-12-09T09:52:13.325Z,20.50
2022-12-09T09:54:40.210Z,23.10
2022-12-09T09:57:22.144Z,22.42
2022-12-09T10:00:09.296Z,22.67
2022-12-09T10:02:49.128Z,21.27
2022-12-09T10:05:32.098Z,22.98
2022-12-09T10:08:36.125Z,21.80
2022-12-09T10:11:23.850Z,22.17
2022-12-09T10:14:36.193Z,23.38
2022-12-09T10:17:21.381Z,20.80
2022-12-09T10:19:54.471Z,23.48
2022-12-09T10:22:25.656Z,22.98
2022-12-09T10:24:58.209Z,22.67
2022-12-09T10:27:42.007Z,25.40
2022-12-09T10:30:19.725Z,23.35
2022-12-09T10:32:47.008Z,24.27
2022-12-09T10:35:21.666Z,24.00
2022-12-09T10:37:52.708Z,22.25
2022-12-09T10:40:25.566Z,22.17
2022-12-09T10:43:17.651Z,22.88
2022-12-09T10:46:17.209Z,21.65
2022-12-09T10:48:55.930Z,26.05
2022-12-09T10:51:30.158Z,22.20
2022-12-09T10:56:36.884Z,23.23
2022-12-09T10:59:27.962Z,22.58
2022-12-09T11:02:18.262Z,18.98
2022-12-09T11:04:47.048Z,21.23
2022-12-09T11:07:22.758Z,21.83
2022-12-09T11:09:58.999Z,22.27
2022-12-09T11:12:33.452Z,23.30
2022-12-09T11:15:28.675Z,23.00
2022-12-09T11:18:32.127Z,21.70
2022-12-09T11:21:06.921Z,19.90
2022-12-09T11:23:35.709Z,21.08
2022-12-09T11:26:06.881Z,22.70
2022-12-09T11:28:40.262Z,23.05
2022-12-09T11:31:29.318Z,18.05
2022-12-09T11:34:06.415Z,21.23
2022-12-09T11:36:40.364Z,21.63
2022-12-09T11:39:28.544Z,20.98
2022-12-09T11:42:22.854Z,20.40
2022-12-09T11:45:06.184Z,22.48
2022-12-09T11:48:25.686Z,21.73
2022-12-09T11:50:33.384Z,22.55
2022-12-09T11:53:32.746Z,22.83
2022-12-09T11:56:20.311Z,22.25
2022-12-09T11:59:17.860Z,23.13
2022-12-09T12:02:12.906Z,21.55
2022-12-09T12:04:56.144Z,21.40
2022-12-09T12:07:35.059Z,20.30
2022-12-09T12:10:03.347Z,22.48
2022-12-09T12:12:45.116Z,23.73
2022-12-09T12:15:38.346Z,22.90
2022-12-09T12:18:15.136Z,23.25
2022-12-09T12:21:10.196Z,23.05
2022-12-09T12:23:55.410Z,23.77
2022-12-09T12:26:58.777Z,22.83
2022-12-09T12:29:38.038Z,23.83
2022-12-09T12:32:30.481Z,22.88
2022-12-09T12:35:22.085Z,24.65
2022-12-09T12:38:43.723Z,24.23
2022-12-09T12:41:10.375Z,25.00
2022-12-09T12:44:37.860Z,23.60
2022-12-09T12:47:57.569Z,21.88
2022-12-09T12:50:38.754Z,21.50
2022-12-09T12:53:31.841Z,22.92
2022-12-09T12:56:14.731Z,22.73
2022-12-09T12:59:06.381Z,21.67
2022-12-09T13:01:57.684Z,22.50
2022-12-09T13:04:40.181Z,23.63
2022-12-09T13:07:17.964Z,24.05
2022-12-09T13:09:56.561Z,23.38
2022-12-09T13:12:48.925Z,24.20
2022-12-09T13:15:18.479Z,22.10
2022-12-09T13:17:47.220Z,26.27
2022-12-09T13:20:28.122Z,24.23
2022-12-09T13:23:37.725Z,24.92
2022-12-09T13:27:17.512Z,24.70
2022-12-09T13:29:54.215Z,23.73
2022-12-09T13:33:04.792Z,25.40
2022-12-09T13:35:57.064Z,24.83
2022-12-09T13:38:39.634Z,24.38
2022-12-09T13:41:31.175Z,24.73
2022-12-09T13:44:17.611Z,24.65
2022-12-09T13:46:44.687Z,24.65
2022-12-09T13:49:19.065Z,23.20
2022-12-09T13:51:51.449Z,24.23
2022-12-09T13:54:22.459Z,23.80
2022-12-09T13:57:19.672Z,24.05
2022-12-09T13:59:55.599Z,23.15
2022-12-09T14:02:29.787Z,23.25
2022-12-09T14:05:09.925Z,23.13
2022-12-09T14:07:48.712Z,24.55
2022-12-09T14:10:37.755Z,22.38
2022-12-09T14:13:27.149Z,24.10
2022-12-09T14:16:16.795Z,23.08
2022-12-09T14:18:44.435Z,24.80
2022-12-09T14:21:28.772Z,26.25
2022-12-09T14:26:46.751Z,24.17
2022-12-09T14:29:42.339Z,24.77
2022-12-09T14:32:33.777Z,27.00
2022-12-09T14:35:39.740Z,26.95
2022-12-09T14:38:20.717Z,25.73
2022-12-09T14:41:06.020Z,28.05
2022-12-09T14:44:01.768Z,26.73
2022-12-09T14:46:33.672Z,24.10
2022-12-09T14:49:20.379Z,26.63
2022-12-09T14:51:52.087Z,23.15
2022-12-09T14:54:36.817Z,24.45
2022-12-09T14:57:14.224Z,21.55
2022-12-09T14:59:50.763Z,19.67
2022-12-09T15:02:24.155Z,19.77
2022-12-09T15:04:55.172Z,20.08
2022-12-09T15:07:33.921Z,19.17
2022-12-09T15:10:13.713Z,20.10
2022-12-09T15:12:48.258Z,19.77
2022-12-09T15:15:33.800Z,18.52
2022-12-09T15:18:05.727Z,17.63
2022-12-09T15:20:39.136Z,17.80
2022-12-09T15:23:26.316Z,20.05
2022-12-09T15:25:56.396Z,19.13
2022-12-09T15:28:27.039Z,21.13
2022-12-09T15:31:19.550Z,20.83
2022-12-09T15:33:54.875Z,21.67
2022-12-09T15:36:33.161Z,23.10
2022-12-09T15:39:08.454Z,20.95
2022-12-09T15:42:04.957Z,21.65
2022-12-09T15:44:49.684Z,19.33
2022-12-09T15:47:48.902Z,19.73
2022-12-09T15:50:33.497Z,22.40
2022-12-09T15:53:42.004Z,23.33
2022-12-09T15:56:18.561Z,22.70
2022-12-09T15:58:51.659Z,27.13
2022-12-09T16:01:30.971Z,25.40
2022-12-09T16:04:00.157Z,23.75
2022-12-09T16:06:33.905Z,23.30
2022-12-09T16:09:02.056Z,23.83
2022-12-09T16:11:55.484Z,23.83
2022-12-09T16:14:24.010Z,25.77
2022-12-09T16:17:03.260Z,21.30
2022-12-09T16:19:36.652Z,25.25
2022-12-09T16:22:14.732Z,25.10
2022-12-09T16:27:37.333Z,25.80
2022-12-09T16:30:20.502Z,24.60
2022-12-09T16:33:02.123Z,27.27
2022-12-09T16:35:36.019Z,26.88
2022-12-09T16:38:11.452Z,27.58
2022-12-09T16:40:44.119Z,26.05
2022-12-09T16:43:19.222Z,25.33
2022-12-09T16:45:51.662Z,24.92
2022-12-09T16:48:20.772Z,29.77
2022-12-09T16:51:06.449Z,26.85
2022-12-09T16:53:45.442Z,25.50
2022-12-09T16:56:31.591Z,26.52
2022-12-09T16:59:01.644Z,24.00
2022-12-09T17:01:34.639Z,26.05
2022-12-09T17:04:05.201Z,27.43
2022-12-09T17:06:32.546Z,27.58
2022-12-09T17:08:59.346Z,25.55
2022-12-09T17:11:26.180Z,24.73
2022-12-09T17:13:53.501Z,24.75
2022-12-09T17:16:23.983Z,24.45
2022-12-09T17:18:51.348Z,25.02
2022-12-09T17:21:18.761Z,22.35
2022-12-09T17:23:45.821Z,26.02
2022-12-09T17:26:15.661Z,24.95
2022-12-09T17:28:43.809Z,23.50
2022-12-09T17:31:17.583Z,24.83
2022-12-09T17:33:45.017Z,25.23
2022-12-09T17:36:14.030Z,25.02
2022-12-09T17:38:41.479Z,25.85
2022-12-09T17:41:13.298Z,23.52
2022-12-09T17:43:40.079Z,25.25
2022-12-09T17:46:07.667Z,26.10
2022-12-09T17:48:35.184Z,25.02
2022-12-09T17:51:11.392Z,24.73
2022-12-09T17:53:40.926Z,23.60
2022-12-09T17:56:15.646Z,23.25
2022-12-09T17:58:43.424Z,26.23
2022-12-09T18:01:22.474Z,27.50
2022-12-09T18:04:00.390Z,25.58
2022-12-09T18:06:33.922Z,23.90
2022-12-09T18:09:02.132Z,25.42
2022-12-09T18:11:28.912Z,25.52
2022-12-09T18:13:55.873Z,26.52
2022-12-09T18:16:22.732Z,24.48
2022-12-09T18:18:49.855Z,27.73
2022-12-09T18:21:19.527Z,30.23
2022-12-09T18:23:46.599Z,30.05
2022-12-09T18:26:15.994Z,28.63
2022-12-09T18:28:43.438Z,29.00
2022-12-09T18:31:14.154Z,29.65
2022-12-09T18:33:42.053Z,27.75
2022-12-09T18:36:13.375Z,29.42
2022-12-09T18:38:40.969Z,26.55
2022-12-09T18:41:17.618Z,29.23
2022-12-09T18:43:46.886Z,31.05
2022-12-09T18:46:26.407Z,28.92
2022-12-09T18:49:07.098Z,31.58
2022-12-09T18:51:34.558Z,30.60
2022-12-09T18:54:03.155Z,29.77
2022-12-09T18:56:30.256Z,29.27
2022-12-09T18:59:06.558Z,29.92
2022-12-09T19:01:38.916Z,32.20
2022-12-09T19:04:08.619Z,28.83
2022-12-09T19:06:39.148Z,28.20
2022-12-09T19:09:21.915Z,31.33
2022-12-09T19:11:50.882Z,29.80
2022-12-09T19:14:20.231Z,28.90
2022-12-09T19:16:47.989Z,29.85
2022-12-09T19:19:23.564Z,30.50
2022-12-09T19:21:52.774Z,29.17
2022-12-09T19:24:29.740Z,33.42
2022-12-09T19:26:57.790Z,31.90
2022-12-09T19:29:25.704Z,36.05
2022-12-09T19:31:54.102Z,36.33
2022-12-09T19:34:29.545Z,40.97
2022-12-09T19:37:00.116Z,45.10
2022-12-09T19:39:31.101Z,43.58
2022-12-09T19:41:59.257Z,44.75
2022-12-09T19:47:14.244Z,44.78
2022-12-09T19:49:42.522Z,46.85
2022-12-09T19:52:10.577Z,44.80
2022-12-09T19:54:37.660Z,44.45
2022-12-09T19:57:04.523Z,45.13
2022-12-09T19:59:31.271Z,38.42
2022-12-09T20:01:58.062Z,36.65
2022-12-09T20:04:48.322Z,35.50
2022-12-09T20:07:13.196Z,32.13
2022-12-09T20:09:40.027Z,32.83
2022-12-09T20:12:06.872Z,32.92
2022-12-09T20:14:33.802Z,30.05
2022-12-09T20:17:00.560Z,32.72
2022-12-09T20:19:27.758Z,32.47
2022-12-09T20:21:54.532Z,30.55
2022-12-09T20:24:21.358Z,32.65
2022-12-09T20:26:48.112Z,35.17
2022-12-09T20:29:14.862Z,30.98
2022-12-09T20:31:42.813Z,42.47
2022-12-09T20:34:16.218Z,33.78
2022-12-09T20:36:45.271Z,34.88
2022-12-09T20:39:19.531Z,39.40
2022-12-09T20:41:46.758Z,39.45
2022-12-09T20:44:15.740Z,38.47
2022-12-09T20:46:51.259Z,35.25
2022-12-09T20:49:21.854Z,33.38
2022-12-09T20:51:49.089Z,33.72
2022-12-09T20:54:16.233Z,33.38
2022-12-09T20:56:43.150Z,32.97
2022-12-09T20:59:13.434Z,32.08
2022-12-09T21:01:40.917Z,29.23
2022-12-09T21:04:08.555Z,33.75
2022-12-09T21:06:38.627Z,30.67
2022-12-09T21:09:10.265Z,30.52
2022-12-09T21:11:37.565Z,31.60
2022-12-09T21:14:06.678Z,30.85
2022-12-09T21:16:38.922Z,30.35
2022-12-09T21:19:10.263Z,31.52
2022-12-09T21:21:40.398Z,31.00
2022-12-09T21:24:08.678Z,32.45
2022-12-09T21:26:35.457Z,32.30
2022-12-09T21:29:02.297Z,33.30
2022-12-09T21:31:32.994Z,34.72
2022-12-09T21:34:03.420Z,32.65
2022-12-09T21:36:34.044Z,31.75
2022-12-09T21:39:01.346Z,32.95
2022-12-09T21:41:31.805Z,30.60
2022-12-09T21:43:58.695Z,31.55
2022-12-09T21:46:29.599Z,31.98
2022-12-09T21:49:03.297Z,33.30
2022-12-09T21:51:32.245Z,30.52
2022-12-09T21:53:59.371Z,31.27
2022-12-09T21:56:30.236Z,31.98
2022-12-09T21:58:59.156Z,28.33
2022-12-09T22:01:36.115Z,30.45
2022-12-09T22:04:05.789Z,28.48
2022-12-09T22:06:32.957Z,28.65
2022-12-09T22:09:00.927Z,30.92
2022-12-09T22:11:32.241Z,28.52
2022-12-09T22:14:01.250Z,27.88
2022-12-09T22:16:32.483Z,26.80
2022-12-09T22:19:01.423Z,28.10
2022-12-09T22:21:30.687Z,28.30
2022-12-09T22:24:05.029Z,28.23
2022-12-09T22:26:32.033Z,27.42
2022-12-09T22:29:01.038Z,27.23
2022-12-09T22:31:32.655Z,27.75
2022-12-09T22:34:05.165Z,27.27
2022-12-09T22:36:32.953Z,27.67
2022-12-09T22:38:59.716Z,25.92
2022-12-09T22:41:29.639Z,27.48
2022-12-09T22:43:56.974Z,28.92
2022-12-09T22:46:30.975Z,29.05
2022-12-09T22:51:31.190Z,26.38
2022-12-09T22:53:59.124Z,26.90
2022-12-09T22:56:26.225Z,29.52
2022-12-09T22:58:53.342Z,28.35
2022-12-09T23:01:25.670Z,29.08
2022-12-09T23:03:54.731Z,29.27
2022-12-09T23:06:21.928Z,29.08
2022-12-09T23:08:49.039Z,26.27
2022-12-09T23:11:25.433Z,26.23
2022-12-09T23:13:52.931Z,10.70
2022-12-09T23:16:23.064Z,26.25
2022-12-09T23:18:51.263Z,25.55
2022-12-09T23:21:37.676Z,25.98
2022-12-09T23:24:09.635Z,25.85
2022-12-09T23:26:39.235Z,26.58
2022-12-09T23:29:12.645Z,26.35
2022-12-09T23:31:39.908Z,27.40
2022-12-09T23:34:08.520Z,25.63
2022-12-09T23:36:39.117Z,26.50
2022-12-09T23:39:10.929Z,25.42
2022-12-09T23:41:40.379Z,25.55
2022-12-09T23:44:12.862Z,24.35
2022-12-09T23:46:40.191Z,22.67
2022-12-09T23:49:07.653Z,24.42
2022-12-09T23:51:36.525Z,25.95
2022-12-09T23:54:06.316Z,25.20
2022-12-09T23:56:39.847Z,24.20
2022-12-09T23:59:10.867Z,25.38
